createdAt,value
2023-04-22T00:00:24.614Z,6.40
2023-04-22T00:04:42.201Z,6.40
2023-04-22T00:08:59.619Z,6.40
2023-04-22T00:13:17.123Z,6.50
2023-04-22T00:17:34.583Z,6.60
2023-04-22T00:21:51.888Z,6.70
2023-04-22T00:26:09.425Z,6.90
2023-04-22T00:30:26.659Z,6.80
2023-04-22T00:34:43.829Z,6.70
2023-04-22T00:39:01.202Z,6.70
2023-04-22T00:43:18.469Z,6.70
2023-04-22T00:47:36.569Z,6.60
2023-04-22T00:51:54.325Z,6.50
2023-04-22T00:56:12.928Z,6.50
2023-04-22T01:00:30.423Z,6.50
2023-04-22T01:04:48.088Z,6.30
2023-04-22T01:09:05.621Z,6.30
2023-04-22T01:13:22.994Z,6.20
2023-04-22T01:17:40.586Z,6.10
2023-04-22T01:21:59.367Z,6.00
2023-04-22T01:26:16.987Z,5.90
2023-04-22T01:30:34.614Z,5.80
2023-04-22T01:34:52.096Z,5.70
2023-04-22T01:39:09.401Z,5.70
2023-04-22T01:43:26.709Z,5.70
2023-04-22T01:47:44.702Z,5.60
2023-04-22T01:52:02.076Z,5.50
2023-04-22T01:56:19.569Z,5.50
2023-04-22T02:00:37.045Z,5.60
2023-04-22T02:04:54.741Z,5.50
2023-04-22T02:09:11.984Z,5.20
2023-04-22T02:13:40.806Z,5.10
2023-04-22T02:17:58.263Z,5.30
2023-04-22T02:22:16.022Z,5.20
2023-04-22T02:26:33.576Z,5.10
2023-04-22T02:30:50.871Z,5.10
2023-04-22T02:35:08.756Z,5.10
2023-04-22T02:39:26.244Z,5.20
2023-04-22T02:43:46.928Z,5.30
2023-04-22T02:48:04.620Z,5.20
2023-04-22T02:52:21.906Z,5.10
2023-04-22T02:56:39.208Z,5.20
2023-04-22T03:00:59.568Z,5.20
2023-04-22T03:05:16.889Z,5.20
2023-04-22T03:09:34.060Z,5.30
2023-04-22T03:13:51.286Z,5.20
2023-04-22T03:18:08.878Z,5.30
2023-04-22T03:22:26.433Z,5.30
2023-04-22T03:26:43.837Z,5.10
2023-04-22T03:31:01.056Z,5.10
2023-04-22T03:35:18.331Z,4.90
2023-04-22T03:39:35.728Z,4.90
2023-04-22T03:43:55.033Z,4.70
2023-04-22T03:48:12.333Z,4.70
2023-04-22T03:52:29.572Z,4.80
2023-04-22T03:56:47.513Z,4.70
2023-04-22T04:01:04.978Z,4.70
2023-04-22T04:05:22.293Z,4.80
2023-04-22T04:09:39.845Z,4.90
2023-04-22T04:13:57.433Z,5.00
2023-04-22T04:18:15.022Z,5.00
2023-04-22T04:22:32.313Z,5.00
2023-04-22T04:26:49.867Z,5.10
2023-04-22T04:31:08.170Z,5.10
2023-04-22T04:35:26.439Z,5.10
2023-04-22T04:39:44.725Z,5.00
2023-04-22T04:44:02.049Z,5.10
2023-04-22T04:48:20.061Z,5.30
2023-04-22T04:52:37.299Z,5.30
2023-04-22T04:56:54.730Z,5.30
2023-04-22T05:01:12.907Z,5.40
2023-04-22T05:05:30.960Z,5.40
2023-04-22T05:09:48.341Z,5.60
2023-04-22T05:14:06.519Z,5.80
2023-04-22T05:18:23.825Z,6.00
2023-04-22T05:22:46.075Z,6.10
2023-04-22T05:27:03.837Z,6.30
2023-04-22T05:31:21.273Z,6.50
2023-04-22T05:35:38.610Z,6.90
2023-04-22T05:39:56.199Z,7.20
2023-04-22T05:44:13.689Z,7.30
2023-04-22T05:48:31.311Z,7.40
2023-04-22T05:52:48.663Z,7.60
2023-04-22T05:57:06.416Z,7.80
2023-04-22T06:01:25.281Z,8.00
2023-04-22T06:05:44.298Z,8.30
2023-04-22T06:10:05.368Z,8.50
2023-04-22T06:14:22.881Z,8.70
2023-04-22T06:18:40.139Z,8.80
2023-04-22T06:22:57.732Z,9.10
2023-04-22T06:27:15.002Z,9.40
2023-04-22T06:31:32.627Z,9.70
2023-04-22T06:35:49.893Z,10.10
2023-04-22T06:40:08.365Z,10.40
2023-04-22T06:44:25.962Z,10.80
2023-04-22T06:48:43.245Z,11.10
2023-04-22T06:53:00.536Z,11.50
2023-04-22T06:57:17.875Z,11.90
2023-04-22T07:01:35.627Z,12.50
2023-04-22T07:05:53.040Z,12.90
2023-04-22T07:10:12.629Z,13.20
2023-04-22T07:14:31.877Z,13.80
2023-04-22T07:18:49.235Z,14.30
2023-04-22T07:23:06.610Z,15.00
2023-04-22T07:27:23.965Z,15.50
2023-04-22T07:31:41.653Z,16.00
2023-04-22T07:35:58.949Z,16.50
2023-04-22T07:40:16.446Z,16.90
2023-04-22T07:44:33.875Z,17.20
2023-04-22T07:48:51.125Z,17.60
2023-04-22T07:53:10.418Z,17.90
2023-04-22T07:57:27.726Z,18.40
2023-04-22T08:01:46.591Z,18.80
2023-04-22T08:06:04.128Z,18.80
2023-04-22T08:10:21.502Z,18.80
2023-04-22T08:14:38.916Z,18.90
2023-04-22T08:18:57.658Z,19.00
2023-04-22T08:23:14.899Z,19.40
2023-04-22T08:27:32.121Z,19.70
2023-04-22T08:31:49.512Z,19.80
2023-04-22T08:36:07.884Z,20.10
2023-04-22T08:40:25.200Z,20.90
2023-04-22T08:44:43.228Z,20.70
2023-04-22T08:49:03.987Z,20.60
2023-04-22T08:53:23.794Z,20.80
2023-04-22T08:57:42.539Z,21.10
2023-04-22T09:02:00.799Z,21.40
2023-04-22T09:06:21.329Z,21.40
2023-04-22T09:10:39.515Z,21.70
2023-04-22T09:14:57.508Z,22.70
2023-04-22T09:19:15.738Z,22.80
2023-04-22T09:23:33.018Z,22.90
2023-04-22T09:27:51.122Z,22.70
2023-04-22T09:32:11.919Z,22.60
2023-04-22T09:36:30.729Z,22.80
2023-04-22T09:40:48.338Z,23.20
2023-04-22T09:45:06.143Z,23.80
2023-04-22T09:49:23.410Z,23.90
2023-04-22T09:53:40.780Z,24.20
2023-04-22T09:58:04.123Z,24.00
2023-04-22T10:02:29.865Z,25.40
2023-04-22T10:06:50.424Z,23.50
2023-04-22T10:11:07.975Z,24.00
2023-04-22T10:15:27.143Z,23.90
2023-04-22T10:19:48.088Z,23.90
2023-04-22T10:24:05.597Z,25.40
2023-04-22T10:28:24.772Z,25.30
2023-04-22T10:32:42.158Z,24.40
2023-04-22T10:37:09.257Z,24.70
2023-04-22T10:41:31.110Z,24.50
2023-04-22T10:45:48.449Z,25.40
2023-04-22T10:50:24.346Z,25.20
2023-04-22T10:54:44.611Z,26.60
2023-04-22T10:59:16.625Z,25.60
2023-04-22T11:03:34.331Z,24.50
2023-04-22T11:07:55.188Z,24.90
2023-04-22T11:12:42.180Z,26.20
2023-04-22T11:16:59.714Z,26.10
2023-04-22T11:21:17.205Z,25.20
2023-04-22T11:25:34.476Z,25.60
2023-04-22T11:30:15.093Z,25.00
2023-04-22T11:34:32.617Z,25.00
2023-04-22T11:38:57.428Z,26.40
2023-04-22T11:43:15.122Z,26.70
2023-04-22T11:47:34.717Z,26.90
2023-04-22T11:51:54.107Z,27.20
2023-04-22T11:56:12.960Z,26.10
2023-04-22T12:00:40.542Z,26.10
2023-04-22T12:04:59.461Z,26.50
2023-04-22T12:09:16.706Z,26.70
2023-04-22T12:13:41.874Z,26.60
2023-04-22T12:18:02.050Z,27.00
2023-04-22T12:22:26.946Z,25.80
2023-04-22T12:26:44.341Z,25.50
2023-04-22T12:31:01.902Z,26.40
2023-04-22T12:35:19.249Z,26.80
2023-04-22T12:39:38.291Z,24.90
2023-04-22T12:43:56.587Z,25.30
2023-04-22T12:48:14.288Z,25.10
2023-04-22T12:52:31.813Z,25.70
2023-04-22T12:56:49.084Z,27.20
2023-04-22T13:01:06.458Z,28.20
2023-04-22T13:05:23.943Z,27.80
2023-04-22T13:09:41.953Z,27.00
2023-04-22T13:13:59.421Z,26.50
2023-04-22T13:18:17.113Z,26.10
2023-04-22T13:22:34.480Z,26.70
2023-04-22T13:26:51.679Z,26.50
2023-04-22T13:31:09.089Z,25.60
2023-04-22T13:35:27.836Z,26.00
2023-04-22T13:39:45.627Z,25.80
2023-04-22T13:44:04.434Z,26.20
2023-04-22T13:48:22.066Z,26.30
2023-04-22T13:52:39.536Z,26.70
2023-04-22T13:56:56.867Z,26.30
2023-04-22T14:01:14.322Z,27.30
2023-04-22T14:05:32.733Z,27.10
2023-04-22T14:09:50.250Z,27.80
2023-04-22T14:14:07.680Z,27.50
2023-04-22T14:18:25.746Z,27.20
2023-04-22T14:22:43.351Z,27.40
2023-04-22T14:27:03.713Z,26.60
2023-04-22T14:31:21.280Z,26.80
2023-04-22T14:35:39.161Z,27.20
2023-04-22T14:39:57.513Z,25.50
2023-04-22T14:44:15.050Z,25.00
2023-04-22T14:48:35.575Z,25.70
2023-04-22T14:52:53.089Z,25.60
2023-04-22T14:57:10.580Z,25.50
2023-04-22T15:01:27.873Z,24.80
2023-04-22T15:05:49.225Z,24.80
2023-04-22T15:10:07.387Z,25.10
2023-04-22T15:14:24.654Z,25.90
2023-04-22T15:18:42.051Z,26.70
2023-04-22T15:22:59.278Z,26.20
2023-04-22T15:27:16.555Z,26.30
2023-04-22T15:31:33.859Z,26.00
2023-04-22T15:35:51.098Z,24.50
2023-04-22T15:40:10.111Z,24.30
2023-04-22T15:44:28.334Z,24.20
2023-04-22T15:48:47.418Z,24.30
2023-04-22T15:53:04.869Z,23.40
2023-04-22T15:57:22.381Z,22.90
2023-04-22T16:01:40.757Z,22.50
2023-04-22T16:05:58.362Z,22.30
2023-04-22T16:10:15.852Z,22.10
2023-04-22T16:14:33.082Z,22.10
2023-04-22T16:18:50.420Z,21.80
2023-04-22T16:23:08.415Z,21.70
2023-04-22T16:27:26.050Z,21.40
2023-04-22T16:31:44.104Z,21.20
2023-04-22T16:36:01.439Z,21.20
2023-04-22T16:40:18.865Z,21.00
2023-04-22T16:44:36.423Z,20.80
2023-04-22T16:48:54.027Z,20.30
2023-04-22T16:53:11.925Z,20.10
2023-04-22T16:57:29.306Z,19.90
2023-04-22T17:01:47.821Z,19.60
2023-04-22T17:06:05.330Z,19.50
2023-04-22T17:10:22.663Z,19.40
2023-04-22T17:14:39.940Z,19.20
2023-04-22T17:18:57.220Z,18.90
2023-04-22T17:23:14.639Z,18.70
2023-04-22T17:27:32.040Z,18.60
2023-04-22T17:31:50.794Z,18.40
2023-04-22T17:36:08.313Z,18.30
2023-04-22T17:40:25.908Z,18.00
2023-04-22T17:44:43.174Z,17.50
2023-04-22T17:49:00.476Z,17.40
2023-04-22T17:53:17.802Z,17.40
2023-04-22T17:57:35.377Z,17.30
2023-04-22T18:01:52.760Z,17.00
2023-04-22T18:06:10.002Z,16.90
2023-04-22T18:10:27.639Z,16.60
2023-04-22T18:14:44.906Z,16.60
2023-04-22T18:19:04.150Z,16.60
2023-04-22T18:23:21.906Z,16.40
2023-04-22T18:27:39.239Z,16.30
2023-04-22T18:31:57.417Z,16.30
2023-04-22T18:36:14.792Z,16.10
2023-04-22T18:40:32.435Z,15.90
2023-04-22T18:44:49.903Z,15.60
2023-04-22T18:49:07.336Z,15.50
2023-04-22T18:53:24.601Z,15.30
2023-04-22T18:57:42.000Z,15.20
2023-04-22T19:02:00.836Z,15.00
2023-04-22T19:06:18.357Z,14.90
2023-04-22T19:10:35.994Z,14.80
2023-04-22T19:14:53.666Z,14.70
2023-04-22T19:19:12.172Z,14.70
2023-04-22T19:23:29.373Z,14.60
2023-04-22T19:27:46.826Z,14.60
2023-04-22T19:32:05.087Z,14.60
2023-04-22T19:36:22.561Z,14.50
2023-04-22T19:40:40.193Z,14.50
2023-04-22T19:44:59.678Z,14.60
2023-04-22T19:49:17.644Z,14.70
2023-04-22T19:53:35.493Z,14.80
2023-04-22T19:57:53.104Z,14.80
2023-04-22T20:02:10.786Z,15.00
2023-04-22T20:06:29.290Z,15.00
2023-04-22T20:10:49.890Z,14.90
2023-04-22T20:15:08.989Z,14.90
2023-04-22T20:19:27.716Z,14.90
2023-04-22T20:23:46.817Z,14.80
2023-04-22T20:28:06.397Z,14.80
2023-04-22T20:32:23.687Z,14.70
2023-04-22T20:36:42.180Z,14.50
2023-04-22T20:41:02.317Z,14.40
2023-04-22T20:45:20.665Z,14.40
2023-04-22T20:49:43.493Z,14.30
2023-04-22T20:54:00.738Z,14.40
2023-04-22T20:58:18.188Z,14.60
2023-04-22T21:02:36.121Z,14.70
2023-04-22T21:06:55.301Z,14.80
2023-04-22T21:11:12.881Z,14.90
2023-04-22T21:15:31.278Z,14.90
2023-04-22T21:19:53.882Z,15.10
2023-04-22T21:24:14.430Z,15.10
2023-04-22T21:28:32.628Z,15.30
2023-04-22T21:32:50.183Z,15.30
2023-04-22T21:37:08.222Z,15.20
2023-04-22T21:41:27.332Z,15.20
2023-04-22T21:45:45.086Z,15.10
2023-04-22T21:50:03.260Z,15.00
2023-04-22T21:54:20.710Z,14.80
2023-04-22T21:58:38.116Z,14.70
2023-04-22T22:02:55.878Z,14.40
2023-04-22T22:07:15.063Z,14.30
2023-04-22T22:11:32.451Z,14.20
2023-04-22T22:15:49.925Z,14.10
2023-04-22T22:20:11.858Z,14.10
2023-04-22T22:24:29.409Z,14.00
2023-04-22T22:28:47.271Z,13.90
2023-04-22T22:33:04.457Z,13.90
2023-04-22T22:37:21.926Z,14.00
2023-04-22T22:41:40.481Z,14.00
2023-04-22T22:45:59.067Z,13.90
2023-04-22T22:50:16.401Z,13.90
2023-04-22T22:54:37.578Z,14.00
2023-04-22T22:58:54.910Z,14.10
2023-04-22T23:03:12.743Z,14.00
2023-04-22T23:07:30.140Z,13.90
2023-04-22T23:11:49.325Z,13.80
2023-04-22T23:16:06.674Z,13.70
2023-04-22T23:20:24.413Z,13.70
2023-04-22T23:24:42.220Z,13.80
2023-04-22T23:29:00.088Z,13.70
2023-04-22T23:33:24.315Z,13.60
2023-04-22T23:37:47.446Z,13.70
2023-04-22T23:42:04.695Z,13.70
2023-04-22T23:46:21.953Z,13.70
2023-04-22T23:50:39.323Z,13.70
2023-04-22T23:54:57.673Z,13.60
2023-04-22T23:59:15.316Z,13.70
